• Join FlightAware (Why Join?)
  • Login
  • US Flag 
05:32AM EST


 

Airport Tracker/Info


-or-


 

Live Flight TrackerFlight Track Log ✈ N8847A ✈ 10-May-2012 ✈ KFWA - KDTW

Flight Track Log - Related Links

Times and Time Zones

All times are in EDT time to prevent confusion due to time zone crossing. See the N8847A flight status page for this flight to view local times or setup timezone preferences in your user account.

Time Position Orientation Groundspeed Altitude Reporting Facility
EDT Latitude Longitude Course Direction KTS MPH feet Rate Location/Type
05:09PM 41.0703 -85.0886 39° Northeast 222 255 6,200  Level Chicago Center
05:13PM 41.3033 -84.8403 40° Northeast 333 383 11,000 1,059 Climbing Cleveland Center
05:14PM 41.3794 -84.7539 48° Northeast 351 404 11,000  Level Cleveland Center
05:15PM 41.4456 -84.6556 51° Northeast 351 404 11,000  Level Cleveland Center
05:16PM 41.5097 -84.5486 50° Northeast 362 417 11,000  Level Cleveland Center
05:17PM 41.5758 -84.4444 50° Northeast 362 417 11,000  Level Cleveland Center
05:18PM 41.6419 -84.3400 51° Northeast 362 417 11,000  Level Cleveland Center
05:18PM 41.6858 -84.2675 50° Northeast 364 419 11,000  Level Cleveland Center
05:19PM 41.7453 -84.1736 52° Northeast 357 411 11,000  Level Cleveland Center
05:20PM 41.7850 -84.1061 50° Northeast 321 369 11,000 -72 Level Cleveland Center
05:21PM 41.8133 -84.0603 57° Northeast 323 372 10,900  Descending Cleveland Center
05:22PM 41.8533 -83.9761 60° Northeast 278 320 11,000 -650 Climbing Cleveland Center
05:23PM 41.8981 -83.8725 63° Northeast 270 311 9,600 -1,603 Descending Cleveland Center
05:24PM 41.9253 -83.8011 59° Northeast 273 314 7,900 -1,829 Descending Cleveland Center
05:24PM 41.9475 -83.7519 63° Northeast 269 310 7,100 -1,135 Descending Cleveland Center
05:25PM 41.9697 -83.6944 55° Northeast 258 297 6,500 -980 Descending Cleveland Center
05:26PM 42.0117 -83.6128 48° Northeast 263 303 5,500 -1,200 Descending Cleveland Center
05:26PM 42.0356 -83.5775 53° Northeast 252 290 4,700 -1,500 Descending Cleveland Center
05:27PM 42.0553 -83.5419 50° Northeast 258 297 4,000 -1,133 Descending Cleveland Center
05:28PM 42.0964 -83.4767 35° Northeast 241 277 3,000 -902 Descending Cleveland Center
05:29PM 42.1606 -83.4153 26° Northeast 149 171 1,700 -825 Descending Cleveland Center
05:30PM 42.1967 -83.3917 61° Northeast 138 159 800 -806 Descending Cleveland Center
05:38PM 42.3917 -82.9150 61° Northeast  Level Estimated